createdAt,value
2022-09-27T00:01:25.337Z,12.07
2022-09-27T00:03:56.482Z,12.10
2022-09-27T00:06:28.327Z,12.11
2022-09-27T00:08:57.773Z,12.09
2022-09-27T00:11:30.980Z,12.07
2022-09-27T00:14:01.061Z,12.04
2022-09-27T00:16:32.314Z,12.01
2022-09-27T00:19:01.832Z,11.99
2022-09-27T00:21:32.703Z,11.99
2022-09-27T00:24:02.643Z,11.97
2022-09-27T00:26:31.972Z,11.98
2022-09-27T00:29:00.866Z,11.99
2022-09-27T00:31:31.962Z,12.01
2022-09-27T00:34:03.064Z,12.01
2022-09-27T00:36:35.970Z,11.89
2022-09-27T00:39:05.249Z,11.16
2022-09-27T00:41:37.218Z,12.01
2022-09-27T00:44:28.534Z,12.02
2022-09-27T00:47:05.401Z,12.01
2022-09-27T00:49:42.215Z,12.01
2022-09-27T00:52:20.532Z,11.83
2022-09-27T00:54:55.191Z,11.99
2022-09-27T00:57:24.985Z,11.99
2022-09-27T01:00:00.958Z,11.96
2022-09-27T01:02:30.717Z,11.97
2022-09-27T01:04:59.693Z,11.97
2022-09-27T01:07:29.969Z,11.96
2022-09-27T01:09:59.475Z,11.97
2022-09-27T01:12:39.553Z,11.96
2022-09-27T01:15:23.461Z,11.93
2022-09-27T01:18:06.607Z,11.94
2022-09-27T01:21:08.882Z,11.94
2022-09-27T01:24:21.157Z,11.94
2022-09-27T01:27:20.663Z,11.94
2022-09-27T01:30:32.610Z,11.97
2022-09-27T01:33:15.257Z,11.97
2022-09-27T01:36:09.234Z,11.98
2022-09-27T01:38:47.871Z,11.96
2022-09-27T01:41:29.354Z,11.96
2022-09-27T01:44:23.601Z,12.00
2022-09-27T01:47:04.555Z,12.02
2022-09-27T01:49:47.247Z,12.04
2022-09-27T01:52:20.582Z,12.09
2022-09-27T01:54:56.011Z,12.13
2022-09-27T01:57:44.109Z,12.17
2022-09-27T02:00:19.816Z,12.19
2022-09-27T02:02:54.492Z,12.23
2022-09-27T02:05:37.242Z,12.24
2022-09-27T02:08:22.730Z,12.26
2022-09-27T02:10:56.046Z,12.27
2022-09-27T02:13:31.402Z,12.25
2022-09-27T02:16:24.854Z,12.21
2022-09-27T02:19:03.742Z,12.21
2022-09-27T02:21:42.666Z,12.20
2022-09-27T02:24:20.782Z,12.04
2022-09-27T02:27:02.287Z,12.22
2022-09-27T02:29:40.423Z,12.25
2022-09-27T02:32:11.055Z,12.25
2022-09-27T02:34:43.047Z,12.25
2022-09-27T02:37:12.727Z,12.25
2022-09-27T02:39:42.038Z,12.24
2022-09-27T02:42:11.305Z,12.23
2022-09-27T02:44:42.663Z,12.25
2022-09-27T02:47:30.530Z,12.27
2022-09-27T02:50:18.535Z,12.30
2022-09-27T02:53:00.476Z,12.32
2022-09-27T02:55:50.862Z,12.32
2022-09-27T02:58:59.442Z,12.19
2022-09-27T03:02:08.563Z,12.32
2022-09-27T03:04:59.090Z,12.33
2022-09-27T03:07:30.432Z,12.32
2022-09-27T03:09:59.108Z,12.33
2022-09-27T03:12:28.115Z,12.32
2022-09-27T03:14:58.777Z,12.32
2022-09-27T03:17:47.860Z,12.31
2022-09-27T03:20:35.147Z,12.30
2022-09-27T03:23:13.451Z,12.29
2022-09-27T03:25:42.758Z,12.30
2022-09-27T03:28:16.813Z,12.29
2022-09-27T03:30:48.580Z,12.29
2022-09-27T03:33:47.240Z,12.26
2022-09-27T03:36:16.284Z,12.25
2022-09-27T03:38:46.675Z,12.26
2022-09-27T03:41:19.164Z,12.23
2022-09-27T03:43:48.799Z,12.20
2022-09-27T03:46:18.170Z,12.15
2022-09-27T03:48:47.107Z,12.10
2022-09-27T03:51:15.923Z,12.09
2022-09-27T03:53:46.918Z,12.09
2022-09-27T03:56:16.091Z,12.10
2022-09-27T03:58:45.216Z,12.13
2022-09-27T04:01:14.663Z,12.19
2022-09-27T04:03:45.723Z,12.23
2022-09-27T04:06:30.382Z,12.24
2022-09-27T04:09:00.599Z,12.26
2022-09-27T04:11:42.963Z,12.28
2022-09-27T04:14:13.126Z,12.28
2022-09-27T04:17:01.250Z,12.28
2022-09-27T04:19:48.715Z,12.28
2022-09-27T04:22:17.675Z,12.30
2022-09-27T04:24:47.907Z,12.27
2022-09-27T04:27:26.074Z,12.24
2022-09-27T04:29:55.202Z,12.23
2022-09-27T04:32:45.216Z,12.24
2022-09-27T04:35:57.217Z,12.19
2022-09-27T04:38:26.355Z,12.28
2022-09-27T04:40:57.052Z,12.28
2022-09-27T04:43:27.143Z,12.29
2022-09-27T04:45:56.498Z,12.30
2022-09-27T04:48:26.349Z,12.31
2022-09-27T04:50:59.485Z,12.32
2022-09-27T04:53:29.779Z,12.30
2022-09-27T04:56:02.942Z,12.29
2022-09-27T04:58:31.934Z,12.27
2022-09-27T05:01:03.032Z,12.26
2022-09-27T05:03:50.318Z,12.27
2022-09-27T05:06:21.316Z,12.28
2022-09-27T05:08:51.923Z,12.29
2022-09-27T05:11:31.471Z,12.29
2022-09-27T05:14:18.617Z,12.27
2022-09-27T05:17:03.617Z,12.26
2022-09-27T05:19:58.834Z,12.25
2022-09-27T05:22:46.454Z,12.24
2022-09-27T05:25:15.539Z,12.28
2022-09-27T05:27:45.954Z,12.32
2022-09-27T05:30:15.941Z,12.32
2022-09-27T05:32:54.627Z,12.35
2022-09-27T05:35:54.380Z,12.31
2022-09-27T05:38:26.564Z,12.52
2022-09-27T05:40:58.899Z,12.59
2022-09-27T05:43:29.684Z,12.65
2022-09-27T05:46:02.789Z,12.68
2022-09-27T05:48:36.260Z,12.71
2022-09-27T05:51:12.604Z,12.75
2022-09-27T05:53:45.601Z,12.78
2022-09-27T05:56:22.776Z,12.76
2022-09-27T05:59:13.092Z,12.72
2022-09-27T06:02:05.329Z,12.72
2022-09-27T06:05:04.262Z,12.83
2022-09-27T06:07:51.308Z,12.98
2022-09-27T06:10:28.930Z,13.04
2022-09-27T06:13:07.305Z,13.08
2022-09-27T06:15:44.125Z,13.12
2022-09-27T06:18:16.328Z,13.05
2022-09-27T06:20:47.309Z,12.97
2022-09-27T06:23:18.652Z,12.92
2022-09-27T06:25:50.532Z,12.87
2022-09-27T06:28:23.737Z,12.85
2022-09-27T06:31:02.520Z,12.85
2022-09-27T06:33:41.223Z,12.88
2022-09-27T06:36:10.872Z,12.89
2022-09-27T06:38:42.183Z,12.89
2022-09-27T06:41:21.981Z,12.93
2022-09-27T06:44:06.011Z,12.93
2022-09-27T06:46:45.349Z,12.88
2022-09-27T06:49:14.252Z,12.84
2022-09-27T06:51:44.025Z,12.81
2022-09-27T06:54:13.626Z,12.81
2022-09-27T06:56:42.579Z,12.83
2022-09-27T06:59:29.104Z,12.95
2022-09-27T07:02:19.994Z,13.11
2022-09-27T07:05:12.250Z,13.25
2022-09-27T07:08:01.965Z,13.34
2022-09-27T07:10:35.917Z,13.38
2022-09-27T07:13:07.604Z,13.39
2022-09-27T07:15:37.404Z,13.38
2022-09-27T07:18:12.083Z,13.41
2022-09-27T07:20:41.445Z,13.39
2022-09-27T07:23:13.087Z,13.38
2022-09-27T07:25:42.707Z,13.36
2022-09-27T07:28:22.053Z,13.37
2022-09-27T07:30:55.496Z,13.39
2022-09-27T07:33:26.332Z,13.35
2022-09-27T07:35:55.368Z,13.27
2022-09-27T07:38:26.016Z,13.19
2022-09-27T07:40:55.064Z,13.21
2022-09-27T07:43:23.978Z,13.23
2022-09-27T07:45:53.363Z,13.16
2022-09-27T07:48:45.772Z,13.14
2022-09-27T07:51:35.091Z,13.17
2022-09-27T07:54:09.730Z,13.27
2022-09-27T07:56:49.077Z,13.54
2022-09-27T07:59:20.519Z,13.94
2022-09-27T08:01:49.599Z,14.24
2022-09-27T08:04:20.588Z,14.49
2022-09-27T08:06:49.554Z,14.80
2022-09-27T08:09:18.958Z,15.07
2022-09-27T08:11:48.562Z,15.24
2022-09-27T08:14:18.774Z,15.32
2022-09-27T08:16:51.271Z,15.28
2022-09-27T08:19:30.469Z,15.23
2022-09-27T08:22:05.452Z,15.27
2022-09-27T08:24:47.271Z,15.31
2022-09-27T08:27:23.516Z,15.23
2022-09-27T08:29:59.109Z,15.30
2022-09-27T08:32:28.807Z,15.52
2022-09-27T08:34:59.931Z,15.75
2022-09-27T08:37:31.817Z,15.97
2022-09-27T08:40:01.014Z,16.09
2022-09-27T08:42:40.030Z,16.17
2022-09-27T08:45:17.839Z,16.39
2022-09-27T08:47:52.689Z,16.70
2022-09-27T08:50:29.377Z,16.78
2022-09-27T08:53:08.902Z,16.63
2022-09-27T08:55:41.925Z,16.69
2022-09-27T08:58:23.192Z,16.53
2022-09-27T09:00:55.574Z,17.01
2022-09-27T09:03:30.856Z,17.26
2022-09-27T09:06:20.311Z,17.02
2022-09-27T09:09:05.237Z,15.82
2022-09-27T09:12:13.414Z,17.00
2022-09-27T09:15:07.217Z,16.94
2022-09-27T09:18:20.498Z,16.80
2022-09-27T09:21:27.451Z,16.90
2022-09-27T09:24:22.939Z,17.42
2022-09-27T09:27:01.645Z,17.48
2022-09-27T09:30:08.197Z,17.34
2022-09-27T09:33:02.334Z,17.28
2022-09-27T09:35:40.471Z,16.82
2022-09-27T09:38:19.785Z,17.45
2022-09-27T09:40:58.638Z,17.34
2022-09-27T09:43:36.856Z,17.91
2022-09-27T09:46:17.840Z,18.25
2022-09-27T09:48:53.510Z,18.21
2022-09-27T09:51:28.532Z,18.40
2022-09-27T09:54:09.294Z,17.78
2022-09-27T09:56:47.809Z,17.87
2022-09-27T09:59:25.358Z,17.69
2022-09-27T10:02:02.419Z,17.53
2022-09-27T10:04:32.901Z,17.22
2022-09-27T10:07:05.076Z,17.56
2022-09-27T10:09:41.725Z,17.55
2022-09-27T10:12:31.360Z,18.54
2022-09-27T10:15:06.630Z,18.24
2022-09-27T10:17:41.418Z,17.80
2022-09-27T10:20:27.037Z,18.13
2022-09-27T10:23:05.630Z,17.85
2022-09-27T10:25:58.059Z,18.74
2022-09-27T10:28:49.082Z,18.49
2022-09-27T10:31:23.524Z,18.87
2022-09-27T10:34:05.595Z,18.26
2022-09-27T10:36:48.804Z,19.40
2022-09-27T10:39:24.458Z,19.84
2022-09-27T10:41:55.504Z,19.47
2022-09-27T10:44:34.515Z,19.21
2022-09-27T10:47:28.774Z,19.42
2022-09-27T10:50:49.090Z,19.35
2022-09-27T10:53:28.960Z,18.83
2022-09-27T10:56:05.893Z,18.47
2022-09-27T10:58:39.664Z,17.76
2022-09-27T11:01:13.721Z,17.58
2022-09-27T11:04:06.585Z,16.67
2022-09-27T11:06:42.101Z,16.11
2022-09-27T11:09:23.530Z,15.17
2022-09-27T11:12:10.967Z,15.52
2022-09-27T11:14:43.507Z,15.22
2022-09-27T11:17:24.663Z,13.81
2022-09-27T11:20:32.904Z,14.86
2022-09-27T11:23:44.433Z,14.83
2022-09-27T11:26:42.794Z,14.92
2022-09-27T11:29:31.917Z,15.31
2022-09-27T11:32:53.321Z,16.00
2022-09-27T11:35:47.262Z,16.52
2022-09-27T11:38:51.124Z,15.74
2022-09-27T11:41:40.222Z,17.29
2022-09-27T11:44:48.057Z,16.40
2022-09-27T11:47:31.026Z,16.95
2022-09-27T11:50:38.301Z,16.73
2022-09-27T11:53:29.024Z,17.09
2022-09-27T11:56:15.956Z,17.54
2022-09-27T11:59:07.118Z,17.58
2022-09-27T12:01:51.148Z,17.46
2022-09-27T12:04:57.293Z,16.67
2022-09-27T12:07:40.865Z,15.00
2022-09-27T12:10:16.969Z,15.43
2022-09-27T12:12:53.857Z,14.42
2022-09-27T12:15:27.346Z,14.84
2022-09-27T12:18:13.984Z,14.86
2022-09-27T12:20:54.066Z,14.28
2022-09-27T12:23:36.786Z,15.69
2022-09-27T12:26:39.919Z,16.31
2022-09-27T12:29:19.906Z,16.64
2022-09-27T12:31:57.335Z,16.73
2022-09-27T12:34:40.241Z,15.92
2022-09-27T12:37:17.049Z,14.90
2022-09-27T12:39:56.821Z,15.37
2022-09-27T12:42:37.511Z,15.07
2022-09-27T12:45:15.278Z,14.72
2022-09-27T12:48:03.004Z,14.17
2022-09-27T12:50:41.828Z,14.35
2022-09-27T12:53:21.294Z,14.45
2022-09-27T12:56:29.700Z,14.63
2022-09-27T12:59:37.013Z,15.17
2022-09-27T13:03:15.221Z,15.13
2022-09-27T13:06:31.854Z,14.78
2022-09-27T13:09:48.745Z,15.07
2022-09-27T13:12:25.185Z,15.27
2022-09-27T13:15:04.436Z,15.17
2022-09-27T13:17:56.314Z,15.25
2022-09-27T13:20:49.526Z,15.38
2022-09-27T13:23:59.755Z,15.32
2022-09-27T13:27:01.115Z,14.51
2022-09-27T13:29:34.568Z,15.32
2022-09-27T13:32:28.558Z,15.65
2022-09-27T13:35:20.977Z,15.79
2022-09-27T13:37:59.561Z,15.43
2022-09-27T13:40:50.553Z,16.06
2022-09-27T13:43:55.862Z,15.48
2022-09-27T13:46:38.492Z,15.35
2022-09-27T13:49:20.853Z,13.82
2022-09-27T13:52:26.386Z,14.77
2022-09-27T13:55:45.178Z,14.42
2022-09-27T13:58:48.477Z,14.53
2022-09-27T14:02:01.144Z,14.60
2022-09-27T14:04:44.539Z,14.90
2022-09-27T14:07:18.498Z,14.77
2022-09-27T14:09:52.711Z,15.22
2022-09-27T14:12:32.659Z,15.34
2022-09-27T14:15:05.575Z,15.23
2022-09-27T14:17:36.348Z,15.07
2022-09-27T14:20:08.449Z,14.70
2022-09-27T14:22:40.033Z,14.99
2022-09-27T14:25:20.668Z,15.04
2022-09-27T14:27:53.086Z,15.09
2022-09-27T14:30:46.761Z,14.84
2022-09-27T14:33:37.090Z,14.75
2022-09-27T14:36:44.064Z,14.71
2022-09-27T14:39:24.100Z,14.56
2022-09-27T14:41:54.594Z,14.98
2022-09-27T14:44:28.034Z,14.92
2022-09-27T14:47:12.226Z,14.47
2022-09-27T14:49:50.756Z,14.27
2022-09-27T14:52:31.512Z,13.91
2022-09-27T14:55:02.933Z,14.11
2022-09-27T14:57:35.996Z,13.95
2022-09-27T15:00:20.009Z,13.98
2022-09-27T15:02:50.980Z,13.21
2022-09-27T15:05:24.768Z,12.01
2022-09-27T15:07:58.277Z,9.98
2022-09-27T15:10:32.085Z,11.01
2022-09-27T15:13:09.782Z,10.81
2022-09-27T15:15:43.195Z,10.41
2022-09-27T15:18:34.643Z,10.40
2022-09-27T15:21:07.620Z,10.17
2022-09-27T15:23:39.801Z,10.26
2022-09-27T15:26:15.932Z,10.64
2022-09-27T15:28:47.702Z,10.66
2022-09-27T15:31:17.589Z,10.70
2022-09-27T15:33:57.544Z,10.72
2022-09-27T15:37:03.880Z,9.67
2022-09-27T15:39:38.474Z,10.78
2022-09-27T15:42:14.180Z,10.73
2022-09-27T15:44:53.265Z,10.25
2022-09-27T15:47:47.906Z,11.07
2022-09-27T15:50:37.307Z,11.05
2022-09-27T15:53:07.533Z,11.19
2022-09-27T15:55:45.235Z,10.20
2022-09-27T15:58:20.324Z,11.32
2022-09-27T16:00:58.296Z,9.76
2022-09-27T16:03:28.479Z,11.44
2022-09-27T16:05:59.355Z,11.48
2022-09-27T16:08:30.911Z,11.51
2022-09-27T16:11:03.364Z,11.41
2022-09-27T16:13:33.286Z,11.57
2022-09-27T16:16:05.425Z,10.78
2022-09-27T16:18:34.245Z,10.48
2022-09-27T16:21:04.461Z,10.98
2022-09-27T16:23:36.945Z,11.12
2022-09-27T16:26:15.991Z,10.27
2022-09-27T16:28:44.908Z,9.60
2022-09-27T16:31:18.432Z,10.20
2022-09-27T16:33:50.831Z,10.38
2022-09-27T16:36:20.824Z,10.63
2022-09-27T16:38:55.388Z,10.38
2022-09-27T16:41:25.131Z,10.37
2022-09-27T16:43:54.569Z,10.53
2022-09-27T16:46:23.483Z,10.19
2022-09-27T16:48:52.792Z,10.51
2022-09-27T16:51:40.311Z,10.33
2022-09-27T16:54:16.026Z,10.26
2022-09-27T16:56:46.960Z,10.54
2022-09-27T16:59:19.398Z,9.70
2022-09-27T17:01:50.248Z,10.56
2022-09-27T17:04:19.860Z,10.58
2022-09-27T17:06:48.771Z,10.53
2022-09-27T17:09:19.336Z,10.45
2022-09-27T17:11:48.551Z,10.59
2022-09-27T17:14:18.457Z,10.35
2022-09-27T17:16:49.043Z,10.36
2022-09-27T17:19:19.117Z,10.13
2022-09-27T17:21:48.660Z,10.29
2022-09-27T17:24:19.352Z,10.58
2022-09-27T17:26:48.372Z,10.46
2022-09-27T17:29:17.532Z,10.52
2022-09-27T17:31:47.401Z,10.16
2022-09-27T17:34:17.343Z,10.33
2022-09-27T17:36:50.509Z,8.97
2022-09-27T17:39:23.115Z,9.41
2022-09-27T17:41:53.343Z,9.87
2022-09-27T17:44:23.866Z,9.74
2022-09-27T17:47:12.890Z,9.19
2022-09-27T17:49:59.448Z,9.51
2022-09-27T17:52:28.756Z,8.76
2022-09-27T17:54:59.030Z,9.26
2022-09-27T17:57:38.622Z,8.05
2022-09-27T18:00:13.833Z,7.00
2022-09-27T18:02:51.252Z,6.82
2022-09-27T18:05:21.811Z,8.94
2022-09-27T18:07:55.440Z,8.85
2022-09-27T18:10:27.575Z,7.85
2022-09-27T18:14:31.148Z,8.63
2022-09-27T18:17:58.141Z,8.33
2022-09-27T18:20:53.946Z,7.69
2022-09-27T18:24:05.096Z,8.46
2022-09-27T18:27:20.693Z,8.14
2022-09-27T18:30:12.565Z,8.29
2022-09-27T18:33:44.945Z,8.23
2022-09-27T18:40:10.335Z,8.02
2022-09-27T18:43:40.562Z,8.19
2022-09-27T18:46:44.015Z,8.11
2022-09-27T18:49:54.585Z,7.85
2022-09-27T18:56:07.997Z,8.21
2022-09-27T18:59:10.044Z,7.77
2022-09-27T19:02:44.243Z,8.00
2022-09-27T19:08:46.875Z,8.33
2022-09-27T19:12:02.518Z,8.36
2022-09-27T19:14:34.996Z,8.26
2022-09-27T19:17:03.746Z,7.24
2022-09-27T19:19:35.803Z,8.14
2022-09-27T19:22:05.787Z,8.22
2022-09-27T19:24:37.238Z,7.93
2022-09-27T19:27:06.020Z,8.27
2022-09-27T19:29:36.949Z,8.23
2022-09-27T19:32:05.860Z,8.42
2022-09-27T19:34:34.533Z,8.42
2022-09-27T19:37:03.389Z,8.08
2022-09-27T19:39:35.182Z,7.71
2022-09-27T19:42:03.952Z,8.26
2022-09-27T19:44:33.386Z,7.41
2022-09-27T19:47:03.574Z,8.12
2022-09-27T19:49:32.254Z,8.04
2022-09-27T19:52:01.220Z,8.02
2022-09-27T19:54:30.113Z,7.89
2022-09-27T19:57:01.903Z,7.78
2022-09-27T19:59:30.763Z,7.44
2022-09-27T20:01:59.851Z,7.81
2022-09-27T20:04:30.174Z,7.85
2022-09-27T20:06:59.076Z,7.42
2022-09-27T20:09:28.021Z,7.80
2022-09-27T20:11:57.175Z,7.42
2022-09-27T20:14:25.895Z,6.94
2022-09-27T20:16:54.672Z,7.43
2022-09-27T20:19:23.426Z,7.42
2022-09-27T20:21:53.842Z,7.16
2022-09-27T20:24:22.757Z,7.08
2022-09-27T20:26:53.838Z,7.62
2022-09-27T20:29:22.628Z,7.49
2022-09-27T20:32:15.908Z,7.41
2022-09-27T20:34:40.145Z,7.39
2022-09-27T20:37:10.278Z,7.46
2022-09-27T20:39:39.036Z,7.14
2022-09-27T20:42:07.982Z,7.26
2022-09-27T20:44:37.013Z,7.22
2022-09-27T20:47:05.850Z,7.20
2022-09-27T20:49:34.950Z,7.20
2022-09-27T20:52:03.827Z,7.12
2022-09-27T20:54:34.331Z,7.32
2022-09-27T20:57:03.358Z,7.38
2022-09-27T20:59:33.437Z,7.41
2022-09-27T21:02:02.697Z,7.03
2022-09-27T21:04:32.124Z,7.39
2022-09-27T21:07:03.682Z,7.36
2022-09-27T21:09:34.425Z,7.34
2022-09-27T21:12:03.479Z,7.27
2022-09-27T21:14:32.240Z,7.32
2022-09-27T21:17:02.182Z,7.26
2022-09-27T21:19:38.179Z,7.04
2022-09-27T21:22:07.591Z,6.34
2022-09-27T21:24:41.882Z,6.36
2022-09-27T21:27:11.238Z,7.11
2022-09-27T21:29:43.403Z,7.06
2022-09-27T21:32:15.531Z,6.98
2022-09-27T21:34:45.102Z,6.58
2022-09-27T21:37:14.594Z,4.97
2022-09-27T21:39:45.448Z,6.66
2022-09-27T21:42:16.601Z,6.82
2022-09-27T21:44:45.801Z,6.79
2022-09-27T21:47:15.202Z,5.51
2022-09-27T21:49:44.308Z,6.88
2022-09-27T21:52:13.572Z,6.83
2022-09-27T21:54:43.844Z,6.82
2022-09-27T21:57:13.261Z,6.38
2022-09-27T21:59:42.017Z,6.83
2022-09-27T22:02:12.141Z,6.82
2022-09-27T22:04:43.862Z,6.78
2022-09-27T22:07:12.701Z,6.80
2022-09-27T22:09:41.466Z,6.63
2022-09-27T22:12:11.656Z,6.85
2022-09-27T22:14:40.673Z,6.68
2022-09-27T22:17:09.275Z,6.83
2022-09-27T22:19:38.344Z,6.83
2022-09-27T22:22:07.136Z,6.55
2022-09-27T22:24:40.306Z,6.64
2022-09-27T22:27:10.354Z,6.74
2022-09-27T22:29:39.117Z,5.84
2022-09-27T22:32:08.219Z,6.78
2022-09-27T22:34:36.989Z,6.82
2022-09-27T22:37:05.777Z,5.87
2022-09-27T22:39:34.554Z,6.89
2022-09-27T22:42:03.132Z,7.22
2022-09-27T22:44:34.405Z,7.14
2022-09-27T22:47:06.352Z,6.80
2022-09-27T22:49:35.080Z,7.73
2022-09-27T22:52:04.161Z,7.85
2022-09-27T22:54:32.899Z,7.71
2022-09-27T22:57:01.800Z,7.89
2022-09-27T22:59:32.285Z,8.04
2022-09-27T23:02:01.002Z,7.88
2022-09-27T23:04:29.627Z,6.99
2022-09-27T23:06:58.281Z,7.70
2022-09-27T23:09:27.056Z,7.30
2022-09-27T23:11:55.826Z,7.50
2022-09-27T23:14:26.171Z,6.53
2022-09-27T23:16:56.299Z,7.36
2022-09-27T23:19:26.572Z,6.95
2022-09-27T23:21:55.824Z,7.23
2022-09-27T23:24:24.516Z,7.18
2022-09-27T23:27:14.240Z,7.13
2022-09-27T23:29:43.968Z,7.05
2022-09-27T23:32:14.450Z,7.02
2022-09-27T23:34:43.365Z,6.85
2022-09-27T23:37:12.415Z,6.92
2022-09-27T23:39:41.182Z,6.89
2022-09-27T23:42:09.824Z,5.98
2022-09-27T23:44:38.571Z,5.46
2022-09-27T23:47:07.523Z,6.75
2022-09-27T23:49:38.095Z,6.53
2022-09-27T23:52:07.487Z,6.65
2022-09-27T23:54:36.177Z,6.52
2022-09-27T23:57:05.785Z,6.58
2022-09-27T23:59:35.129Z,6.55
